Terminal Aerodrome Forecast
Issued by NWS

Home | Current Version | Previous Version | Text Only | Print | Product List | Glossary On
Versions: 1 2 3 4 5 6 7 8 9 10 11 12 13 14 15 16 17 18 19 20 21 22 23 24 25 26 27 28 29 30 31
000
FTUS43 KMKX 060520
TAFENW
TAF
KENW 060520Z 0606/0706 19004KT P6SM FEW250
     FM061700 19012KT P6SM FEW250
     FM070100 20014G22KT 3SM TSRA BKN035CB OVC090
     FM070500 23010G18KT 4SM TSRA SCT025 OVC035CB=

USA.gov is the U.S. government's official web portal to all federal, state and local government web resources and services.